Data for 08/11/2014

Time Sea-Level Adjusted Pressure Absolute Pressure Temperature Relative Humidity Dew Point   
(mb) (inHg) (mb) (inHg) (C) (F) (%) (C) (F)
00:05 1025 30.27 854 25.22 20.3 68.6 26 0.2 32.4
00:10 1025 30.27 854 25.22 20.3 68.5 26 0.5 33
00:15 1025 30.27 854 25.22 20 68 27 0.7 33.2
00:20 1025 30.27 854 25.22 20 67.9 27 0.7 33.3
00:25 1025 30.27 854 25.22 20.1 68.2 28 1 33.7
00:30 1025 30.27 854 25.22 20.4 68.6 28 1.3 34.4
00:35 1025 30.27 854 25.22 20.4 68.7 29 1.8 35.3
00:40 1025 30.27 854 25.22 20.3 68.5 29 1.9 35.5
00:45 1025 30.27 854 25.22 20.6 69 28 1.7 35.1
00:50 1025 30.27 854 25.22 21 69.7 29 2.3 36.1
00:55 1025 30.27 854 25.22 20.8 69.5 30 2.6 36.8
01:00 1025 30.27 854 25.22 20.2 68.4 31 2.7 36.8
01:05 1025 30.27 854 25.22 19.7 67.5 34 3.5 38.3
01:10 1025 30.27 854 25.22 18.3 64.9 37 3.6 38.4
01:15 1025 30.27 854 25.22 17.7 63.9 37 2.9 37.2
01:20 1025 30.27 854 25.22 17.7 63.9 36 2.8 37
01:25 1025 30.27 854 25.22 17.9 64.2 36 2.6 36.7
01:30 1025 30.27 854 25.22 17.7 63.9 36 2.8 37
01:35 1025 30.27 854 25.22 17.6 63.7 36 2.4 36.3
01:40 1025 30.27 854 25.22 17.6 63.6 36 2.4 36.4
01:45 1025 30.27 854 25.22 17.4 63.2 36 2.2 35.9
01:50 1025 30.27 854 25.22 17.3 63.2 38 2.8 37.1
01:55 1025 30.27 854 25.22 17.2 62.9 37 2.3 36.2
02:00 1025 30.27 854 25.22 17.1 62.7 37 2.4 36.4
02:05 1025 30.27 854 25.22 17.1 62.7 37 2.3 36.1
02:10 1025 30.27 854 25.22 16.9 62.5 36 2 35.6
02:15 1025 30.27 854 25.22 17.1 62.8 36 2 35.6
02:20 1025 30.27 855 25.25 17.2 62.9 37 2.3 36.1
02:25 1025 30.27 855 25.25 17 62.7 38 2.8 37
02:30 1025 30.27 855 25.25 16.8 62.3 38 2.5 36.6
02:35 1025 30.27 855 25.25 16.9 62.4 36 2 35.6
02:40 1025 30.27 854 25.22 16.8 62.3 36 2 35.5
02:45 1025 30.27 854 25.22 16.6 61.9 37 2.1 35.7
02:50 1025 30.27 854 25.22 16.2 61.2 37 1.8 35.3
02:55 1025 30.27 854 25.22 16.6 61.8 37 1.8 35.3
03:00 1025 30.27 854 25.22 16.8 62.3 38 2.5 36.4
03:05 1025 30.27 854 25.22 17 62.6 37 2.2 35.9
03:10 1025 30.27 854 25.22 16.9 62.4 37 2.1 35.7
03:15 1025 30.27 855 25.25 16.6 61.8 38 2.4 36.3
03:20 1025 30.27 855 25.25 16.7 62 38 2.4 36.3
03:25 1025 30.27 855 25.25 16.5 61.7 38 2.3 36.1
03:30 1025 30.27 855 25.25 16.8 62.3 42 3.9 39.1
03:35 1025 30.27 855 25.25 16.7 62 40 3.1 37.7
03:40 1025 30.27 855 25.25 16.5 61.7 40 3 37.4
03:45 1025 30.27 855 25.25 16.1 61 41 2.9 37.1
03:50 1025 30.27 855 25.25 15.9 60.6 41 2.9 37.1
03:55 1025 30.27 855 25.25 15.7 60.3 41 2.5 36.6
04:00 1025 30.27 855 25.25 15.8 60.4 40 2.3 36.2
04:05 1026 30.3 855 25.25 15.8 60.4 42 3 37.4
04:10 1026 30.3 855 25.25 15.8 60.5 42 3 37.3
04:15 1026 30.3 855 25.25 16 60.7 40 2.3 36.2
04:20 1026 30.3 855 25.25 16.3 61.3 40 2.6 36.8
04:25 1026 30.3 855 25.25 16.1 61.1 41 2.8 37.1
04:30 1026 30.3 855 25.25 16.1 60.9 42 3.2 37.7
04:35 1026 30.3 855 25.25 16.1 60.9 47 5 41
04:40 1026 30.3 855 25.25 16.1 60.9 44 3.8 38.8
04:45 1026 30.3 855 25.25 15.9 60.7 44 3.8 38.8
04:50 1026 30.3 855 25.25 16.3 61.3 44 4 39.2
04:55 1026 30.3 855 25.25 16.3 61.3 43 3.8 38.8
05:00 1026 30.3 855 25.25 15.8 60.5 44 3.7 38.6
05:05 1026 30.3 855 25.25 14.9 58.9 46 3.4 38.2
05:10 1026 30.3 855 25.25 14.2 57.6 44 2.1 35.9
05:15 1026 30.3 855 25.25 14.5 58 44 2.5 36.5
05:20 1026 30.3 855 25.25 14.3 57.8 46 2.8 37.1
05:25 1026 30.3 855 25.25 14 57.2 47 2.9 37.2
05:30 1026 30.3 855 25.25 14.1 57.4 45 2.4 36.4
05:35 1026 30.3 855 25.25 14.2 57.6 46 2.9 37.1
05:40 1026 30.3 855 25.25 14 57.2 48 3.3 37.9
05:45 1026 30.3 855 25.25 13.6 56.4 48 2.9 37.1
05:50 1026 30.3 855 25.25 13.5 56.3 48 2.7 36.9
05:55 1026 30.3 855 25.25 13.7 56.7 47 2.6 36.8
06:00 1026 30.3 855 25.25 14.1 57.5 45 2.4 36.4
06:05 1026 30.3 855 25.25 14.8 58.6 44 2.7 36.9
06:10 1026 30.3 855 25.25 15.2 59.4 44 3.2 37.8
06:15 1026 30.3 855 25.25 15.2 59.4 44 3.1 37.6
06:20 1026 30.3 855 25.25 15.3 59.6 44 3.4 38.1
06:25 1026 30.3 855 25.25 15.2 59.3 44 3.3 37.9
06:30 1026 30.3 855 25.25 15.4 59.8 43 2.9 37.2
06:35 1026 30.3 855 25.25 15.9 60.7 43 3.4 38
06:40 1026 30.3 855 25.25 16.3 61.3 42 3.5 38.4
06:45 1026 30.3 855 25.25 16.6 61.8 42 3.8 38.9
06:50 1026 30.3 855 25.25 16.7 62.1 43 4.1 39.4
06:55 1026 30.3 855 25.25 17 62.5 45 5 40.9
07:00 1026 30.3 855 25.25 17.4 63.3 43 4.7 40.4
07:05 1026 30.3 855 25.25 17.3 63.1 43 4.7 40.4
07:10 1026 30.3 856 25.28 17.3 63.1 43 4.8 40.7
07:15 1026 30.3 855 25.25 17.5 63.5 45 5.5 41.9
07:20 1026 30.3 855 25.25 17.9 64.2 44 5.6 42.1
07:25 1026 30.3 856 25.28 18.2 64.7 44 5.8 42.4
07:30 1026 30.3 856 25.28 18 64.3 43 5.2 41.4
07:35 1027 30.33 856 25.28 18.2 64.8 44 5.8 42.5
07:40 1027 30.33 856 25.28 18.4 65.1 43 5.6 42.1
07:45 1027 30.33 856 25.28 18.4 65.1 43 5.8 42.5
07:50 1027 30.33 856 25.28 19 66.2 45 6.9 44.5
07:55 1027 30.33 856 25.28 19.2 66.6 40 5.4 41.8
08:00 1027 30.33 856 25.28 19.8 67.7 38 5.1 41.2
08:05 1027 30.33 856 25.28 20.1 68.1 38 5.5 42
08:10 1027 30.33 856 25.28 19.9 67.7 40 6.1 43
08:15 1027 30.33 856 25.28 20.8 69.4 37 5.7 42.2
08:20 1027 30.33 856 25.28 21.2 70.1 35 5.3 41.5
08:25 1027 30.33 856 25.28 21.2 70.2 36 5.8 42.4
08:30 1027 30.33 856 25.28 21.4 70.5 35 5.4 41.8
08:35 1027 30.33 856 25.28 21.5 70.8 36 5.8 42.5
08:40 1027 30.33 856 25.28 21.7 71.1 36 6 42.9
08:45 1027 30.33 856 25.28 22.2 71.9 34 5.5 42
08:50 1027 30.33 856 25.28 22.5 72.6 32 5.3 41.5
08:55 1026 30.3 856 25.28 22.2 71.9 33 5.2 41.3
09:00 1026 30.3 856 25.28 22.6 72.6 31 4.6 40.2
09:05 1027 30.33 856 25.28 23 73.3 31 4.9 40.9
09:10 1026 30.3 856 25.28 23.6 74.4 30 5.3 41.6
09:15 1026 30.3 856 25.28 23.2 73.8 31 5.6 42
09:20 1026 30.3 856 25.28 23.7 74.7 30 5.2 41.4
09:25 1026 30.3 856 25.28 23.9 75 29 5.2 41.3
09:30 1026 30.3 856 25.28 23.9 75 29 5.2 41.3
09:35 1026 30.3 856 25.28 23.5 74.4 29 4.5 40.2
09:40 1026 30.3 856 25.28 23.4 74.2 29 4.7 40.5
09:45 1026 30.3 856 25.28 24.2 75.6 28 4.8 40.6
09:50 1026 30.3 856 25.28 24.9 76.9 28 5.4 41.7
09:55 1026 30.3 856 25.28 25.1 77.1 27 5.1 41.2
10:00 1026 30.3 856 25.28 25.2 77.3 28 5.5 41.9
10:05 1026 30.3 856 25.28 25.1 77.2 27 5 41.1
10:10 1026 30.3 856 25.28 25.2 77.3 27 5 41
10:15 1026 30.3 855 25.25 25 77 28 5.3 41.6
10:20 1026 30.3 855 25.25 25.2 77.4 27 5.3 41.5
10:25 1026 30.3 855 25.25 24.9 76.7 27 4.6 40.2
10:30 1026 30.3 855 25.25 24.7 76.5 26 4.3 39.7
10:35 1026 30.3 855 25.25 25.5 78 25 4.3 39.7
10:40 1026 30.3 855 25.25 26.2 79.1 24 4.3 39.7
10:45 1026 30.3 855 25.25 26.2 79.1 26 5.3 41.6
10:50 1026 30.3 855 25.25 25.6 78.1 25 4.5 40.2
10:55 1026 30.3 855 25.25 26.3 79.3 25 4.7 40.4
11:00 1026 30.3 855 25.25 26.7 80 27 6.2 43.2
11:05 1026 30.3 855 25.25 26.3 79.3 26 5.6 42.1
11:10 1026 30.3 855 25.25 25.9 78.7 27 5.6 42.1
11:15 1026 30.3 855 25.25 26.5 79.6 25 5.3 41.6
11:20 1026 30.3 855 25.25 26.6 79.9 24 4.9 40.8
11:25 1026 30.3 855 25.25 26.1 79.1 25 4.6 40.2
11:30 1026 30.3 855 25.25 26.4 79.5 25 4.9 40.8
11:35 1026 30.3 855 25.25 27.4 81.4 24 5.2 41.3
11:40 1026 30.3 855 25.25 27.6 81.7 24 5.3 41.5
11:45 1026 30.3 855 25.25 28.1 82.5 23 5.3 41.5
11:50 1026 30.3 855 25.25 27.7 81.9 22 4.6 40.3
11:55 1025 30.27 855 25.25 28.1 82.6 21 4 39.1
12:00 1025 30.27 855 25.25 28.6 83.4 20 3.9 38.9
12:05 1025 30.27 855 25.25 29 84.1 22 5.3 41.6
12:10 1025 30.27 855 25.25 28 82.5 22 4.5 40.1
12:15 1025 30.27 854 25.22 28.2 82.8 21 4.2 39.6
12:20 1025 30.27 854 25.22 28.3 83 22 4.7 40.5
12:25 1025 30.27 854 25.22 28 82.4 22 4.8 40.6
12:30 1025 30.27 854 25.22 28.7 83.7 21 4.8 40.6
12:35 1025 30.27 854 25.22 29.6 85.3 20 4.6 40.2
12:40 1025 30.27 854 25.22 30 86 19 4.4 39.9
12:45 1025 30.27 854 25.22 30.1 86.2 19 4.6 40.3
12:50 1025 30.27 854 25.22 30.3 86.5 18 4 39.1
12:55 1025 30.27 854 25.22 30.9 87.5 18 4.5 40
13:00 1025 30.27 854 25.22 30.1 86.2 19 4.2 39.6
13:05 1025 30.27 854 25.22 30.7 87.2 20 5.2 41.3
13:10 1025 30.27 854 25.22 30.9 87.5 18 4 39.1
13:15 1025 30.27 854 25.22 31.2 88.2 17 3.9 39.1
13:20 1025 30.27 854 25.22 31.5 88.6 16 2.7 36.8
13:25 1025 30.27 854 25.22 31.3 88.3 17 3.6 38.5
13:30 1025 30.27 854 25.22 31.4 88.5 17 4 39.2
13:35 1024 30.24 854 25.22 30.7 87.3 18 4.2 39.6
13:40 1024 30.24 854 25.22 31.2 88.2 17 4 39.2
13:45 1024 30.24 854 25.22 31.5 88.7 17 4 39.2
13:50 1024 30.24 853 25.19 31.8 89.2 15 2.6 36.6
13:55 1024 30.24 853 25.19 32 89.6 15 2.6 36.7
14:00 1024 30.24 853 25.19 32.1 89.9 15 2.5 36.5
14:05 1024 30.24 853 25.19 32.5 90.5 15 2.8 37
14:10 1024 30.24 853 25.19 32.4 90.3 15 3.1 37.5
14:15 1024 30.24 853 25.19 32.4 90.3 15 2.9 37.2
14:20 1024 30.24 853 25.19 32.7 90.9 15 3.2 37.7
14:25 1024 30.24 853 25.19 32.6 90.8 15 3.3 37.9
14:30 1024 30.24 853 25.19 32 89.6 15 2.8 37
14:35 1024 30.24 853 25.19 32.3 90.2 14 1.8 35.2
14:40 1024 30.24 853 25.19 31.7 89.1 15 2.3 36.2
14:45 1024 30.24 853 25.19 31.9 89.5 14 2 35.5
14:50 1024 30.24 853 25.19 31.8 89.2 15 2 35.6
14:55 1024 30.24 853 25.19 32.4 90.3 14 1.7 35
15:00 1024 30.24 853 25.19 32.7 90.8 14 1.7 35.1
15:05 1024 30.24 853 25.19 33.1 91.5 14 2 35.5
15:10 1024 30.24 853 25.19 32.8 91.1 14 2.3 36.2
15:15 1024 30.24 853 25.19 32.8 91.1 13 1.6 34.9
15:20 1023 30.21 853 25.19 33 91.3 13 1.3 34.4
15:25 1023 30.21 853 25.19 32.6 90.7 14 1.6 34.8
15:30 1023 30.21 853 25.19 32.3 90.2 13 1.3 34.3
15:35 1023 30.21 853 25.19 31.3 88.4 13 0.5 32.9
15:40 1023 30.21 853 25.19 31.8 89.2 14 0.9 33.7
15:45 1023 30.21 853 25.19 32.6 90.6 13 1.1 33.9
15:50 1023 30.21 852 25.16 32.4 90.3 13 1.1 34
15:55 1023 30.21 852 25.16 32.2 90 14 1.5 34.7
16:00 1023 30.21 852 25.16 32.3 90.2 13 0.8 33.5
16:05 1023 30.21 852 25.16 32.7 90.9 13 1.4 34.4
16:10 1023 30.21 852 25.16 33 91.5 13 1.7 35
16:15 1023 30.21 852 25.16 33.2 91.8 13 1.8 35.3
16:20 1023 30.21 852 25.16 32.9 91.2 14 2.1 35.8
16:25 1023 30.21 852 25.16 32.7 90.8 14 1.6 34.9
16:30 1023 30.21 852 25.16 32.9 91.3 13 1.6 34.8
16:35 1023 30.21 852 25.16 32.8 91.1 14 2.2 36
16:40 1023 30.21 852 25.16 31.8 89.2 13 0.9 33.6
16:45 1023 30.21 852 25.16 31.3 88.3 14 1.1 33.9
16:50 1023 30.21 852 25.16 31.4 88.5 14 1.1 34
16:55 1023 30.21 852 25.16 31.4 88.4 14 1.4 34.5
17:00 1023 30.21 852 25.16 31.8 89.3 14 1.3 34.3
17:05 1023 30.21 852 25.16 32.3 90.1 14 1.9 35.5
17:10 1023 30.21 852 25.16 32.4 90.3 15 2.5 36.6
17:15 1023 30.21 852 25.16 32.3 90.1 14 1.4 34.4
17:20 1023 30.21 852 25.16 32.3 90.2 14 2.1 35.7
17:25 1023 30.21 852 25.16 32.3 90.2 14 2 35.6
17:30 1022 30.18 852 25.16 32 89.6 15 2.4 36.4
17:35 1022 30.18 852 25.16 31 87.8 15 1.3 34.4
17:40 1022 30.18 852 25.16 30.7 87.3 16 2.4 36.4
17:45 1022 30.18 852 25.16 31.1 88 15 1.8 35.3
17:50 1022 30.18 852 25.16 31.5 88.7 15 2.2 35.9
17:55 1022 30.18 852 25.16 30.9 87.6 15 1.9 35.5
18:00 1022 30.18 852 25.16 30.4 86.6 17 3.1 37.6
18:05 1022 30.18 852 25.16 30.4 86.8 18 3.5 38.3
18:10 1022 30.18 852 25.16 30.5 86.8 17 3.1 37.5
18:15 1022 30.18 852 25.16 30.4 86.8 16 2.3 36.1
18:20 1022 30.18 852 25.16 30.3 86.5 17 3.1 37.6
18:25 1022 30.18 852 25.16 30.1 86.2 18 3.9 39.1
18:30 1022 30.18 852 25.16 30.1 86.2 18 3.7 38.6
18:35 1022 30.18 852 25.16 30 86 17 2.7 36.9
18:40 1022 30.18 852 25.16 29.8 85.6 18 3.4 38.1
18:45 1022 30.18 852 25.16 29.4 85 21 5.3 41.5
18:50 1022 30.18 852 25.16 29.2 84.5 20 4.3 39.7
18:55 1022 30.18 852 25.16 29.3 84.7 18 3 37.4
19:00 1022 30.18 852 25.16 29.3 84.8 18 2.9 37.1
19:05 1022 30.18 852 25.16 29.2 84.6 18 2.9 37.2
19:10 1022 30.18 852 25.16 29.1 84.4 19 3.8 38.8
19:15 1022 30.18 852 25.16 28.8 83.8 20 3.9 39
19:20 1022 30.18 852 25.16 28.5 83.4 21 4.1 39.4
19:25 1022 30.18 852 25.16 28.3 83 21 4.4 39.9
19:30 1022 30.18 852 25.16 28.1 82.6 23 5 41.1
19:35 1022 30.18 852 25.16 27.8 82 23 5 40.9
19:40 1022 30.18 852 25.16 27.3 81.2 25 5.7 42.2
19:45 1022 30.18 852 25.16 26.7 80 31 8.3 46.9
19:50 1022 30.18 852 25.16 25.8 78.4 29 6.8 44.3
19:55 1022 30.18 852 25.16 25.3 77.5 28 5.5 41.9
20:00 1023 30.21 852 25.16 25.1 77.3 28 5.8 42.5
20:05 1023 30.21 852 25.16 25.2 77.4 27 5.3 41.5
20:10 1023 30.21 852 25.16 25.4 77.7 28 5.9 42.7
20:15 1023 30.21 852 25.16 25.1 77.3 27 5.2 41.3
20:20 1023 30.21 852 25.16 25.2 77.4 28 5.5 41.9
20:25 1023 30.21 852 25.16 25.1 77.2 27 5.2 41.3
20:30 1023 30.21 852 25.16 25.1 77.1 26 4.5 40.1
20:35 1023 30.21 852 25.16 25.3 77.6 25 4.2 39.5
20:40 1023 30.21 852 25.16 25.5 77.8 25 4 39.2
20:45 1023 30.21 852 25.16 25.6 78.1 24 4.1 39.4
20:50 1023 30.21 852 25.16 25.6 78.1 24 4.1 39.3
20:55 1023 30.21 852 25.16 25.6 78 24 3.9 39.1
21:00 1023 30.21 852 25.16 25.7 78.2 24 3.9 39
21:05 1023 30.21 852 25.16 25.6 78 25 4.1 39.3
21:10 1023 30.21 852 25.16 25.5 77.9 24 3.9 39
21:15 1023 30.21 852 25.16 25.4 77.8 25 4 39.2
21:20 1023 30.21 852 25.16 25.3 77.6 25 4 39.3
21:25 1023 30.21 852 25.16 25.4 77.8 25 4 39.1
21:30 1023 30.21 852 25.16 25.4 77.7 24 3.7 38.7
21:35 1023 30.21 852 25.16 25.4 77.8 24 3.7 38.7
21:40 1023 30.21 852 25.16 25.5 77.9 24 3.8 38.8
21:45 1023 30.21 852 25.16 25.5 77.8 24 3.9 39
21:50 1023 30.21 852 25.16 25.3 77.6 24 3.8 38.8
21:55 1023 30.21 852 25.16 25.4 77.7 24 3.8 38.9
22:00 1023 30.21 852 25.16 25.3 77.5 25 3.9 39.1
22:05 1023 30.21 852 25.16 25.2 77.4 25 4 39.1
22:10 1023 30.21 852 25.16 25.2 77.3 25 4.1 39.4
22:15 1023 30.21 852 25.16 25 77 26 4.2 39.6
22:20 1023 30.21 852 25.16 24.9 76.7 26 4.3 39.7
22:25 1023 30.21 852 25.16 24.7 76.4 26 4.3 39.8
22:30 1023 30.21 852 25.16 24.6 76.2 27 4.5 40
22:35 1023 30.21 852 25.16 24.5 76.1 27 4.5 40
22:40 1023 30.21 852 25.16 24.5 76.1 27 4.4 40
22:45 1023 30.21 852 25.16 24.5 76.1 27 4.6 40.2
22:50 1023 30.21 852 25.16 24.5 76 27 4.7 40.4
22:55 1023 30.21 852 25.16 24.4 76 27 4.6 40.3
23:00 1023 30.21 852 25.16 24.3 75.8 28 4.7 40.5
23:05 1022 30.18 852 25.16 24.3 75.7 28 4.7 40.4
23:10 1022 30.18 852 25.16 24.3 75.7 28 4.7 40.4
23:15 1022 30.18 852 25.16 24.3 75.7 28 4.7 40.5
23:20 1022 30.18 852 25.16 24.2 75.6 28 4.7 40.5
23:25 1022 30.18 852 25.16 24.1 75.5 28 4.8 40.6
23:30 1022 30.18 852 25.16 24.1 75.3 28 4.8 40.6
23:35 1022 30.18 852 25.16 23.9 75.1 29 4.8 40.6
23:40 1022 30.18 852 25.16 23.8 74.8 29 4.9 40.7
23:45 1022 30.18 852 25.16 23.6 74.5 29 4.8 40.6
23:50 1022 30.18 852 25.16 23.4 74.2 30 4.9 40.8
23:55 1022 30.18 852 25.16 23.4 74.1 29 4.7 40.4
24:00 1022 30.18 852 25.16 23.4 74.2 30 4.9 40.8